TimeMST,TemperatureF,Dew PointF,Humidity,Sea Level PressureIn,VisibilityMPH,Wind Direction,Wind SpeedMPH,Gust SpeedMPH,PrecipitationIn,Events,Conditions,WindDirDegrees,DateUTC
12:53 AM,39.0,27.0,62,29.66,10.0,WSW,11.5,-,N/A,,Overcast,240,2013-01-27 07:53:00
1:53 AM,39.0,27.0,62,29.65,10.0,SSW,11.5,-,N/A,,Overcast,210,2013-01-27 08:53:00
2:53 AM,39.0,28.0,65,29.63,10.0,SSW,5.8,-,N/A,,Overcast,210,2013-01-27 09:53:00
3:53 AM,39.0,28.0,65,29.63,10.0,SW,8.1,-,N/A,,Overcast,220,2013-01-27 10:53:00
4:53 AM,39.9,28.9,65,29.63,10.0,SSW,13.8,-,N/A,,Overcast,200,2013-01-27 11:53:00
5:53 AM,39.0,28.9,67,29.66,10.0,SSW,12.7,-,N/A,,Overcast,210,2013-01-27 12:53:00
6:53 AM,37.9,28.0,68,29.68,10.0,SW,12.7,-,N/A,,Clear,220,2013-01-27 13:53:00
7:53 AM,39.0,28.9,67,29.69,10.0,SW,13.8,-,N/A,,Mostly Cloudy,220,2013-01-27 14:53:00
8:53 AM,41.0,28.9,62,29.68,10.0,SSW,17.3,23.0,N/A,,Overcast,210,2013-01-27 15:53:00
9:53 AM,45.0,28.9,53,29.68,10.0,SW,17.3,25.3,N/A,,Overcast,220,2013-01-27 16:53:00
10:53 AM,45.0,28.0,52,29.69,10.0,SW,13.8,20.7,N/A,,Partly Cloudy,220,2013-01-27 17:53:00
11:53 AM,46.9,28.0,48,29.67,10.0,South,11.5,-,N/A,,Scattered Clouds,190,2013-01-27 18:53:00
12:53 PM,51.1,26.1,38,29.62,10.0,SW,20.7,-,N/A,,Mostly Cloudy,220,2013-01-27 19:53:00
1:53 PM,48.9,26.1,41,29.62,10.0,SW,19.6,25.3,N/A,,Overcast,230,2013-01-27 20:53:00
2:53 PM,48.9,28.0,44,29.60,10.0,SSW,23.0,28.8,N/A,,Partly Cloudy,210,2013-01-27 21:53:00
3:53 PM,46.9,26.1,44,29.62,10.0,SW,11.5,21.9,N/A,,Mostly Cloudy,220,2013-01-27 22:53:00
4:53 PM,45.0,26.1,48,29.61,10.0,SW,18.4,27.6,N/A,,Mostly Cloudy,220,2013-01-27 23:53:00
5:53 PM,44.1,26.1,49,29.63,10.0,SW,19.6,31.1,N/A,,Mostly Cloudy,220,2013-01-28 00:53:00
6:53 PM,42.1,26.1,53,29.64,10.0,SSW,24.2,36.8,N/A,,Partly Cloudy,210,2013-01-28 01:53:00
7:53 PM,42.1,26.1,53,29.64,10.0,SSW,20.7,28.8,N/A,,Overcast,210,2013-01-28 02:53:00
8:53 PM,42.1,26.1,53,29.63,10.0,SW,15.0,23.0,N/A,,Overcast,220,2013-01-28 03:53:00
9:53 PM,41.0,26.1,55,29.62,10.0,SW,17.3,24.2,N/A,,Overcast,230,2013-01-28 04:53:00
10:53 PM,36.0,25.0,64,29.63,10.0,NNW,11.5,-,N/A,,Overcast,340,2013-01-28 05:53:00
11:53 PM,30.9,26.1,82,29.66,10.0,NNW,12.7,-,N/A,,Overcast,330,2013-01-28 06:53:00